sensor_id;sensor_type;location;lat;lon;timestamp;pressure;altitude;pressure_sealevel;temperature;humidity
54022;BME280;39936;51.058;17.220;2023-03-23T00:03:23;101084.66;;;7.97;94.25
54022;BME280;39936;51.058;17.220;2023-03-23T00:07:24;101078.34;;;7.89;94.58
54022;BME280;39936;51.058;17.220;2023-03-23T00:11:58;101078.30;;;7.91;94.69
54022;BME280;39936;51.058;17.220;2023-03-23T00:15:21;101078.85;;;7.97;94.72
54022;BME280;39936;51.058;17.220;2023-03-23T00:19:18;101075.31;;;7.98;94.74
54022;BME280;39936;51.058;17.220;2023-03-23T00:23:47;101078.30;;;7.98;94.76
54022;BME280;39936;51.058;17.220;2023-03-23T00:27:32;101074.93;;;7.92;95.49
54022;BME280;39936;51.058;17.220;2023-03-23T00:31:33;101041.98;;;7.67;95.73
54022;BME280;39936;51.058;17.220;2023-03-23T00:39:52;101073.73;;;7.95;96.11
54022;BME280;39936;51.058;17.220;2023-03-23T00:43:44;101063.12;;;8.06;95.70
54022;BME280;39936;51.058;17.220;2023-03-23T00:47:03;101064.89;;;8.11;95.36
54022;BME280;39936;51.058;17.220;2023-03-23T00:50:48;101061.37;;;7.99;95.64
54022;BME280;39936;51.058;17.220;2023-03-23T00:54:06;101057.54;;;7.97;96.13
54022;BME280;39936;51.058;17.220;2023-03-23T00:57:31;101057.75;;;7.95;96.50
54022;BME280;39936;51.058;17.220;2023-03-23T01:01:13;101061.51;;;7.96;96.41
54022;BME280;39936;51.058;17.220;2023-03-23T01:04:39;101059.65;;;7.96;96.53
54022;BME280;39936;51.058;17.220;2023-03-23T01:08:21;101044.40;;;7.94;96.49
54022;BME280;39936;51.058;17.220;2023-03-23T01:12:43;101044.23;;;8.03;96.23
54022;BME280;39936;51.058;17.220;2023-03-23T01:16:25;101042.98;;;8.09;95.99
54022;BME280;39936;51.058;17.220;2023-03-23T01:24:03;101030.59;;;8.07;95.93
54022;BME280;39936;51.058;17.220;2023-03-23T01:27:23;101047.27;;;8.17;95.79
54022;BME280;39936;51.058;17.220;2023-03-23T01:35:12;101030.24;;;8.15;95.84
54022;BME280;39936;51.058;17.220;2023-03-23T01:38:53;101034.63;;;8.23;95.54
54022;BME280;39936;51.058;17.220;2023-03-23T01:42:43;101033.34;;;8.25;95.17
54022;BME280;39936;51.058;17.220;2023-03-23T01:46:05;101007.85;;;8.00;95.83
54022;BME280;39936;51.058;17.220;2023-03-23T01:49:50;101024.24;;;8.13;95.90
54022;BME280;39936;51.058;17.220;2023-03-23T01:57:44;101020.21;;;8.04;97.00
54022;BME280;39936;51.058;17.220;2023-03-23T02:01:17;101017.55;;;8.05;97.48
54022;BME280;39936;51.058;17.220;2023-03-23T02:05:24;101012.59;;;8.07;97.76
54022;BME280;39936;51.058;17.220;2023-03-23T02:09:04;101010.03;;;8.09;98.21
54022;BME280;39936;51.058;17.220;2023-03-23T02:12:27;101002.79;;;8.13;98.11
54022;BME280;39936;51.058;17.220;2023-03-23T02:15:59;100995.03;;;8.19;97.64
54022;BME280;39936;51.058;17.220;2023-03-23T02:31:31;100987.84;;;8.48;95.34
54022;BME280;39936;51.058;17.220;2023-03-23T02:35:05;100984.23;;;8.55;94.90
54022;BME280;39936;51.058;17.220;2023-03-23T02:43:01;100988.20;;;8.68;93.93
54022;BME280;39936;51.058;17.220;2023-03-23T02:46:46;100973.95;;;8.80;93.37
54022;BME280;39936;51.058;17.220;2023-03-23T02:54:35;100972.41;;;9.05;91.75
54022;BME280;39936;51.058;17.220;2023-03-23T02:58:23;100981.16;;;8.92;91.98
54022;BME280;39936;51.058;17.220;2023-03-23T03:02:24;100982.97;;;8.85;92.46
54022;BME280;39936;51.058;17.220;2023-03-23T03:10:59;100982.31;;;8.80;92.94
54022;BME280;39936;51.058;17.220;2023-03-23T03:14:28;100980.73;;;8.83;92.74
54022;BME280;39936;51.058;17.220;2023-03-23T03:25:41;100975.30;;;8.95;91.68
54022;BME280;39936;51.058;17.220;2023-03-23T03:29:38;100967.35;;;8.96;91.09
54022;BME280;39936;51.058;17.220;2023-03-23T03:33:59;100963.26;;;9.05;90.58
54022;BME280;39936;51.058;17.220;2023-03-23T03:37:54;100926.07;;;8.93;89.78
54022;BME280;39936;51.058;17.220;2023-03-23T03:41:20;100952.68;;;9.22;88.91
54022;BME280;39936;51.058;17.220;2023-03-23T03:45:18;100950.95;;;9.29;88.52
54022;BME280;39936;51.058;17.220;2023-03-23T03:49:28;100943.45;;;9.30;88.10
54022;BME280;39936;51.058;17.220;2023-03-23T03:53:08;100930.37;;;9.20;88.44
54022;BME280;39936;51.058;17.220;2023-03-23T04:00:42;100943.98;;;9.48;87.80
54022;BME280;39936;51.058;17.220;2023-03-23T04:04:06;100939.87;;;9.57;87.26
54022;BME280;39936;51.058;17.220;2023-03-23T04:08:05;100942.19;;;9.61;86.59
54022;BME280;39936;51.058;17.220;2023-03-23T04:16:10;100947.09;;;9.39;87.21
54022;BME280;39936;51.058;17.220;2023-03-23T04:20:03;100956.67;;;9.34;87.04
54022;BME280;39936;51.058;17.220;2023-03-23T04:24:22;100942.61;;;9.35;86.78
54022;BME280;39936;51.058;17.220;2023-03-23T04:28:20;100919.35;;;9.21;86.99
54022;BME280;39936;51.058;17.220;2023-03-23T04:31:52;100951.10;;;9.36;86.77
54022;BME280;39936;51.058;17.220;2023-03-23T04:36:00;100954.70;;;9.32;86.99
54022;BME280;39936;51.058;17.220;2023-03-23T04:40:00;100955.74;;;9.25;87.52
54022;BME280;39936;51.058;17.220;2023-03-23T04:43:34;100952.53;;;9.23;87.93
54022;BME280;39936;51.058;17.220;2023-03-23T04:47:01;100953.26;;;9.23;88.20
54022;BME280;39936;51.058;17.220;2023-03-23T04:54:54;100927.64;;;9.17;88.08
54022;BME280;39936;51.058;17.220;2023-03-23T05:02:22;100927.49;;;9.37;87.25
54022;BME280;39936;51.058;17.220;2023-03-23T05:06:02;100945.66;;;9.52;87.02
54022;BME280;39936;51.058;17.220;2023-03-23T05:09:53;100944.95;;;9.55;87.17
54022;BME280;39936;51.058;17.220;2023-03-23T05:13:29;100944.13;;;9.56;86.85
54022;BME280;39936;51.058;17.220;2023-03-23T05:20:48;100936.92;;;9.61;86.90
54022;BME280;39936;51.058;17.220;2023-03-23T05:24:24;100926.63;;;9.63;86.98
54022;BME280;39936;51.058;17.220;2023-03-23T05:27:41;100923.13;;;9.69;86.41
54022;BME280;39936;51.058;17.220;2023-03-23T05:31:20;100925.34;;;9.74;86.28
54022;BME280;39936;51.058;17.220;2023-03-23T05:35:03;100922.13;;;9.77;86.08
54022;BME280;39936;51.058;17.220;2023-03-23T05:39:03;100921.74;;;9.84;85.69
54022;BME280;39936;51.058;17.220;2023-03-23T05:42:22;100915.26;;;9.89;85.04
54022;BME280;39936;51.058;17.220;2023-03-23T05:46:09;100917.07;;;9.99;84.84
54022;BME280;39936;51.058;17.220;2023-03-23T05:49:55;100901.34;;;10.02;84.63
54022;BME280;39936;51.058;17.220;2023-03-23T05:53:16;100906.23;;;10.11;83.92
54022;BME280;39936;51.058;17.220;2023-03-23T05:56:33;100903.53;;;10.21;84.15
54022;BME280;39936;51.058;17.220;2023-03-23T06:00:45;100915.96;;;10.31;83.66
54022;BME280;39936;51.058;17.220;2023-03-23T06:04:06;100921.34;;;10.46;83.49
54022;BME280;39936;51.058;17.220;2023-03-23T06:07:46;100915.13;;;10.51;82.86
54022;BME280;39936;51.058;17.220;2023-03-23T06:11:44;100895.73;;;10.39;82.50
54022;BME280;39936;51.058;17.220;2023-03-23T06:19:35;100896.92;;;10.68;81.28
54022;BME280;39936;51.058;17.220;2023-03-23T06:23:14;100892.03;;;10.77;80.57
54022;BME280;39936;51.058;17.220;2023-03-23T06:26:55;100901.68;;;10.94;80.73
54022;BME280;39936;51.058;17.220;2023-03-23T06:30:28;100903.42;;;11.06;80.24
54022;BME280;39936;51.058;17.220;2023-03-23T06:33:48;100897.45;;;11.23;80.13
54022;BME280;39936;51.058;17.220;2023-03-23T06:37:39;100894.03;;;11.44;79.38
54022;BME280;39936;51.058;17.220;2023-03-23T06:42:04;100885.10;;;11.69;77.74
54022;BME280;39936;51.058;17.220;2023-03-23T06:45:26;100886.68;;;11.97;76.31
54022;BME280;39936;51.058;17.220;2023-03-23T06:49:29;100879.93;;;12.20;74.55
54022;BME280;39936;51.058;17.220;2023-03-23T06:53:11;100876.71;;;12.48;74.24
54022;BME280;39936;51.058;17.220;2023-03-23T06:56:49;100886.26;;;12.71;72.79
54022;BME280;39936;51.058;17.220;2023-03-23T07:00:44;100885.77;;;12.91;70.43
54022;BME280;39936;51.058;17.220;2023-03-23T07:04:08;100881.83;;;13.11;69.00
54022;BME280;39936;51.058;17.220;2023-03-23T07:07:47;100892.24;;;13.22;67.54
54022;BME280;39936;51.058;17.220;2023-03-23T07:11:06;100886.48;;;13.31;68.28
54022;BME280;39936;51.058;17.220;2023-03-23T07:15:32;100858.98;;;13.15;67.81
54022;BME280;39936;51.058;17.220;2023-03-23T07:19:34;100876.53;;;13.31;68.79
54022;BME280;39936;51.058;17.220;2023-03-23T07:26:49;100865.17;;;13.84;67.57
54022;BME280;39936;51.058;17.220;2023-03-23T07:30:30;100860.59;;;14.16;65.68
54022;BME280;39936;51.058;17.220;2023-03-23T07:34:01;100858.94;;;14.29;63.95
54022;BME280;39936;51.058;17.220;2023-03-23T07:37:21;100845.60;;;14.15;64.93
54022;BME280;39936;51.058;17.220;2023-03-23T07:41:03;100858.05;;;14.10;65.54
54022;BME280;39936;51.058;17.220;2023-03-23T07:44:22;100859.16;;;13.99;66.32
54022;BME280;39936;51.058;17.220;2023-03-23T07:48:11;100864.63;;;13.77;67.02
54022;BME280;39936;51.058;17.220;2023-03-23T07:51:29;100875.16;;;13.68;67.01
54022;BME280;39936;51.058;17.220;2023-03-23T07:55:42;100845.27;;;13.52;66.97
54022;BME280;39936;51.058;17.220;2023-03-23T07:59:00;100877.39;;;13.73;67.97
54022;BME280;39936;51.058;17.220;2023-03-23T08:02:42;100855.20;;;13.86;67.72
54022;BME280;39936;51.058;17.220;2023-03-23T08:05:59;100874.75;;;14.59;68.35
54022;BME280;39936;51.058;17.220;2023-03-23T08:09:41;100861.62;;;14.88;64.71
54022;BME280;39936;51.058;17.220;2023-03-23T08:13:22;100852.77;;;14.80;64.49
54022;BME280;39936;51.058;17.220;2023-03-23T08:16:39;100846.70;;;14.75;63.37
54022;BME280;39936;51.058;17.220;2023-03-23T08:20:22;100850.63;;;14.75;64.03
54022;BME280;39936;51.058;17.220;2023-03-23T08:23:42;100842.41;;;14.66;64.51
54022;BME280;39936;51.058;17.220;2023-03-23T08:27:27;100841.26;;;14.63;64.67
54022;BME280;39936;51.058;17.220;2023-03-23T08:30:45;100838.62;;;14.62;64.72
54022;BME280;39936;51.058;17.220;2023-03-23T08:34:08;100826.07;;;14.69;64.37
54022;BME280;39936;51.058;17.220;2023-03-23T08:37:24;100824.17;;;14.86;63.66
54022;BME280;39936;51.058;17.220;2023-03-23T08:41:07;100819.04;;;14.95;63.61
54022;BME280;39936;51.058;17.220;2023-03-23T08:44:25;100814.70;;;14.91;64.29
54022;BME280;39936;51.058;17.220;2023-03-23T08:47:49;100806.66;;;14.97;63.99
54022;BME280;39936;51.058;17.220;2023-03-23T08:51:40;100830.04;;;15.19;62.22
54022;BME280;39936;51.058;17.220;2023-03-23T08:55:05;100823.79;;;15.38;62.44
54022;BME280;39936;51.058;17.220;2023-03-23T08:58:26;100832.79;;;15.80;60.38
54022;BME280;39936;51.058;17.220;2023-03-23T09:01:46;100838.60;;;15.96;58.69
54022;BME280;39936;51.058;17.220;2023-03-23T09:05:05;100837.98;;;15.86;56.92
54022;BME280;39936;51.058;17.220;2023-03-23T09:08:46;100843.16;;;15.90;57.96
54022;BME280;39936;51.058;17.220;2023-03-23T09:12:06;100848.45;;;16.19;58.02
54022;BME280;39936;51.058;17.220;2023-03-23T09:15:24;100850.68;;;16.24;57.79
54022;BME280;39936;51.058;17.220;2023-03-23T09:18:46;100843.50;;;16.30;57.14
54022;BME280;39936;51.058;17.220;2023-03-23T09:22:29;100823.88;;;16.26;55.71
54022;BME280;39936;51.058;17.220;2023-03-23T09:25:52;100831.01;;;16.31;55.53
54022;BME280;39936;51.058;17.220;2023-03-23T09:29:19;100841.02;;;16.33;55.78
54022;BME280;39936;51.058;17.220;2023-03-23T09:32:51;100831.24;;;16.37;56.61
54022;BME280;39936;51.058;17.220;2023-03-23T09:38:21;100832.27;;;16.59;55.46
54022;BME280;39936;51.058;17.220;2023-03-23T09:45:43;100836.03;;;16.57;55.72
54022;BME280;39936;51.058;17.220;2023-03-23T09:49:46;100838.77;;;16.66;56.76
54022;BME280;39936;51.058;17.220;2023-03-23T09:53:32;100837.39;;;16.93;55.28
54022;BME280;39936;51.058;17.220;2023-03-23T09:56:51;100834.84;;;16.72;53.76
54022;BME280;39936;51.058;17.220;2023-03-23T10:00:19;100838.35;;;16.70;53.65
54022;BME280;39936;51.058;17.220;2023-03-23T10:07:27;100839.27;;;17.00;52.96
54022;BME280;39936;51.058;17.220;2023-03-23T10:14:25;100833.13;;;16.92;52.13
54022;BME280;39936;51.058;17.220;2023-03-23T10:21:19;100836.48;;;17.04;53.08
54022;BME280;39936;51.058;17.220;2023-03-23T10:28:54;100837.93;;;17.19;52.70
54022;BME280;39936;51.058;17.220;2023-03-23T10:37:00;100807.67;;;17.52;52.59
54022;BME280;39936;51.058;17.220;2023-03-23T10:40:25;100827.15;;;18.02;51.45
54022;BME280;39936;51.058;17.220;2023-03-23T10:43:45;100825.68;;;17.83;50.55
54022;BME280;39936;51.058;17.220;2023-03-23T10:47:41;100839.95;;;17.69;51.44
54022;BME280;39936;51.058;17.220;2023-03-23T10:51:21;100844.29;;;17.58;50.83
54022;BME280;39936;51.058;17.220;2023-03-23T10:54:46;100853.26;;;17.22;51.03
54022;BME280;39936;51.058;17.220;2023-03-23T10:58:47;100854.11;;;17.00;51.95
54022;BME280;39936;51.058;17.220;2023-03-23T11:02:17;100858.05;;;16.74;52.34
54022;BME280;39936;51.058;17.220;2023-03-23T11:05:44;100835.13;;;16.58;51.50
54022;BME280;39936;51.058;17.220;2023-03-23T11:09:15;100870.58;;;16.80;51.24
54022;BME280;39936;51.058;17.220;2023-03-23T11:12:34;100861.10;;;16.76;51.34
54022;BME280;39936;51.058;17.220;2023-03-23T11:16:10;100854.59;;;16.74;50.32
54022;BME280;39936;51.058;17.220;2023-03-23T11:23:36;100861.91;;;16.85;50.41
54022;BME280;39936;51.058;17.220;2023-03-23T11:27:17;100857.40;;;16.83;50.37
54022;BME280;39936;51.058;17.220;2023-03-23T11:30:35;100866.34;;;16.92;49.41
54022;BME280;39936;51.058;17.220;2023-03-23T11:37:35;100852.27;;;16.99;50.95
54022;BME280;39936;51.058;17.220;2023-03-23T11:41:09;100856.41;;;17.08;50.36
54022;BME280;39936;51.058;17.220;2023-03-23T11:44:48;100863.83;;;17.31;49.80
54022;BME280;39936;51.058;17.220;2023-03-23T11:59:56;100872.62;;;17.34;51.80
54022;BME280;39936;51.058;17.220;2023-03-23T12:51:00;100860.15;;;16.72;50.76
54022;BME280;39936;51.058;17.220;2023-03-23T12:58:14;100862.46;;;16.73;52.06
54022;BME280;39936;51.058;17.220;2023-03-23T13:01:40;100863.91;;;16.81;51.40
54022;BME280;39936;51.058;17.220;2023-03-23T13:05:29;100842.43;;;16.55;51.83
54022;BME280;39936;51.058;17.220;2023-03-23T13:12:55;100864.30;;;16.73;52.60
54022;BME280;39936;51.058;17.220;2023-03-23T13:24:10;100840.34;;;16.77;52.40
54022;BME280;39936;51.058;17.220;2023-03-23T13:31:31;100857.47;;;16.77;53.01
54022;BME280;39936;51.058;17.220;2023-03-23T13:35:44;100862.31;;;16.75;53.94
54022;BME280;39936;51.058;17.220;2023-03-23T13:42:59;100838.81;;;16.84;53.95
54022;BME280;39936;51.058;17.220;2023-03-23T13:46:27;100820.19;;;16.84;53.89
54022;BME280;39936;51.058;17.220;2023-03-23T13:49:54;100831.32;;;16.97;53.42
54022;BME280;39936;51.058;17.220;2023-03-23T13:53:30;100847.60;;;17.17;53.32
54022;BME280;39936;51.058;17.220;2023-03-23T14:01:18;100848.42;;;17.03;53.57
54022;BME280;39936;51.058;17.220;2023-03-23T14:04:39;100854.66;;;16.96;54.20
54022;BME280;39936;51.058;17.220;2023-03-23T14:08:55;100838.47;;;16.77;54.69
54022;BME280;39936;51.058;17.220;2023-03-23T14:12:36;100857.73;;;16.82;54.55
54022;BME280;39936;51.058;17.220;2023-03-23T14:22:45;100853.07;;;16.67;54.86
54022;BME280;39936;51.058;17.220;2023-03-23T14:27:18;100853.95;;;16.59;55.17
54022;BME280;39936;51.058;17.220;2023-03-23T14:31:21;100859.73;;;16.47;56.20
54022;BME280;39936;51.058;17.220;2023-03-23T14:34:57;100854.81;;;16.38;55.54
54022;BME280;39936;51.058;17.220;2023-03-23T14:38:39;100856.41;;;16.41;55.91
54022;BME280;39936;51.058;17.220;2023-03-23T14:42:38;100841.55;;;16.37;56.09
54022;BME280;39936;51.058;17.220;2023-03-23T14:46:30;100847.05;;;16.56;56.20
54022;BME280;39936;51.058;17.220;2023-03-23T14:58:08;100852.16;;;17.01;54.19
54022;BME280;39936;51.058;17.220;2023-03-23T15:01:50;100844.50;;;16.91;54.74
54022;BME280;39936;51.058;17.220;2023-03-23T15:06:17;100828.24;;;16.69;54.23
54022;BME280;39936;51.058;17.220;2023-03-23T15:09:58;100850.28;;;16.79;55.15
54022;BME280;39936;51.058;17.220;2023-03-23T15:13:21;100858.55;;;16.81;55.14
54022;BME280;39936;51.058;17.220;2023-03-23T15:16:52;100852.90;;;16.81;54.77
54022;BME280;39936;51.058;17.220;2023-03-23T15:24:45;100843.79;;;16.72;56.76
54022;BME280;39936;51.058;17.220;2023-03-23T15:28:50;100844.74;;;16.53;57.24
54022;BME280;39936;51.058;17.220;2023-03-23T15:32:46;100846.35;;;16.54;56.77
54022;BME280;39936;51.058;17.220;2023-03-23T15:37:03;100835.62;;;16.55;57.64
54022;BME280;39936;51.058;17.220;2023-03-23T15:40:26;100823.35;;;16.52;57.65
54022;BME280;39936;51.058;17.220;2023-03-23T15:44:22;100819.62;;;16.54;58.68
54022;BME280;39936;51.058;17.220;2023-03-23T15:47:48;100823.19;;;16.69;58.43
54022;BME280;39936;51.058;17.220;2023-03-23T15:51:21;100832.37;;;16.71;57.80
54022;BME280;39936;51.058;17.220;2023-03-23T15:54:59;100832.55;;;16.62;57.88
54022;BME280;39936;51.058;17.220;2023-03-23T15:58:36;100842.23;;;16.49;58.22
54022;BME280;39936;51.058;17.220;2023-03-23T16:02:20;100836.40;;;16.35;58.47
54022;BME280;39936;51.058;17.220;2023-03-23T16:06:13;100839.20;;;16.19;59.20
54022;BME280;39936;51.058;17.220;2023-03-23T16:10:26;100839.12;;;16.01;60.14
54022;BME280;39936;51.058;17.220;2023-03-23T16:14:09;100848.55;;;15.96;60.52
54022;BME280;39936;51.058;17.220;2023-03-23T16:17:55;100848.73;;;15.94;60.79
54022;BME280;39936;51.058;17.220;2023-03-23T16:21:34;100852.66;;;15.96;60.74
54022;BME280;39936;51.058;17.220;2023-03-23T16:25:48;100847.29;;;15.85;61.38
54022;BME280;39936;51.058;17.220;2023-03-23T16:29:26;100849.52;;;15.79;61.87
54022;BME280;39936;51.058;17.220;2023-03-23T16:33:11;100849.57;;;15.61;62.73
54022;BME280;39936;51.058;17.220;2023-03-23T16:37:04;100851.58;;;15.62;62.71
54022;BME280;39936;51.058;17.220;2023-03-23T16:40:23;100829.57;;;15.39;62.93
54022;BME280;39936;51.058;17.220;2023-03-23T16:43:43;100839.36;;;15.46;62.89
54022;BME280;39936;51.058;17.220;2023-03-23T16:47:37;100858.21;;;15.50;63.49
54022;BME280;39936;51.058;17.220;2023-03-23T16:51:29;100858.34;;;15.41;64.47
54022;BME280;39936;51.058;17.220;2023-03-23T16:55:37;100844.84;;;15.13;65.38
54022;BME280;39936;51.058;17.220;2023-03-23T16:58:56;100873.69;;;15.19;65.47
54022;BME280;39936;51.058;17.220;2023-03-23T17:02:23;100877.99;;;15.15;65.61
54022;BME280;39936;51.058;17.220;2023-03-23T17:06:10;100882.48;;;15.14;65.67
54022;BME280;39936;51.058;17.220;2023-03-23T17:10:18;100881.52;;;15.07;65.84
54022;BME280;39936;51.058;17.220;2023-03-23T17:17:58;100896.18;;;14.92;67.06
54022;BME280;39936;51.058;17.220;2023-03-23T17:21:40;100902.59;;;14.88;67.25
54022;BME280;39936;51.058;17.220;2023-03-23T17:25:46;100908.25;;;14.82;67.67
54022;BME280;39936;51.058;17.220;2023-03-23T17:29:28;100908.28;;;14.79;67.94
54022;BME280;39936;51.058;17.220;2023-03-23T17:33:18;100912.24;;;14.73;68.27
54022;BME280;39936;51.058;17.220;2023-03-23T17:36:35;100919.71;;;14.70;68.03
54022;BME280;39936;51.058;17.220;2023-03-23T17:39:55;100917.54;;;14.69;68.57
54022;BME280;39936;51.058;17.220;2023-03-23T17:43:13;100918.74;;;14.64;68.30
54022;BME280;39936;51.058;17.220;2023-03-23T17:46:54;100921.42;;;14.65;68.55
54022;BME280;39936;51.058;17.220;2023-03-23T17:50:40;100921.11;;;14.58;69.18
54022;BME280;39936;51.058;17.220;2023-03-23T17:55:03;100917.09;;;14.53;69.17
54022;BME280;39936;51.058;17.220;2023-03-23T17:58:41;100921.28;;;14.52;69.59
54022;BME280;39936;51.058;17.220;2023-03-23T18:02:46;100920.95;;;14.52;69.44
54022;BME280;39936;51.058;17.220;2023-03-23T18:06:12;100924.95;;;14.51;70.02
54022;BME280;39936;51.058;17.220;2023-03-23T18:10:39;100939.31;;;14.49;69.83
54022;BME280;39936;51.058;17.220;2023-03-23T18:14:57;100945.68;;;14.55;69.46
54022;BME280;39936;51.058;17.220;2023-03-23T18:18:30;100948.23;;;14.56;69.55
54022;BME280;39936;51.058;17.220;2023-03-23T18:26:49;100956.12;;;14.37;70.26
54022;BME280;39936;51.058;17.220;2023-03-23T18:30:34;100930.03;;;14.25;70.17
54022;BME280;39936;51.058;17.220;2023-03-23T18:34:40;100945.22;;;14.34;70.68
54022;BME280;39936;51.058;17.220;2023-03-23T18:38:18;100943.95;;;14.23;70.46
54022;BME280;39936;51.058;17.220;2023-03-23T18:41:53;100947.34;;;14.29;70.59
54022;BME280;39936;51.058;17.220;2023-03-23T18:45:54;100958.26;;;14.20;71.08
54022;BME280;39936;51.058;17.220;2023-03-23T18:49:55;100963.10;;;14.07;71.48
54022;BME280;39936;51.058;17.220;2023-03-23T18:53:51;100970.21;;;13.99;72.09
54022;BME280;39936;51.058;17.220;2023-03-23T18:57:33;100976.81;;;13.94;72.48
54022;BME280;39936;51.058;17.220;2023-03-23T19:00:49;100983.73;;;13.90;72.61
54022;BME280;39936;51.058;17.220;2023-03-23T19:12:25;100986.52;;;13.80;72.90
54022;BME280;39936;51.058;17.220;2023-03-23T19:15:41;100981.94;;;13.81;73.11
54022;BME280;39936;51.058;17.220;2023-03-23T19:19:20;100979.82;;;13.79;73.36
54022;BME280;39936;51.058;17.220;2023-03-23T19:26:52;100969.04;;;13.71;73.77
54022;BME280;39936;51.058;17.220;2023-03-23T19:30:55;100967.41;;;13.70;73.84
54022;BME280;39936;51.058;17.220;2023-03-23T19:34:28;100967.98;;;13.74;73.81
54022;BME280;39936;51.058;17.220;2023-03-23T19:37:46;100966.35;;;13.61;74.68
54022;BME280;39936;51.058;17.220;2023-03-23T19:41:27;100939.30;;;13.30;75.34
54022;BME280;39936;51.058;17.220;2023-03-23T19:44:58;100972.43;;;13.54;74.73
54022;BME280;39936;51.058;17.220;2023-03-23T19:48:39;100977.40;;;13.59;74.61
54022;BME280;39936;51.058;17.220;2023-03-23T19:52:21;100982.06;;;13.58;74.69
54022;BME280;39936;51.058;17.220;2023-03-23T19:56:08;100975.52;;;13.50;75.09
54022;BME280;39936;51.058;17.220;2023-03-23T19:59:44;100978.00;;;13.56;74.73
54022;BME280;39936;51.058;17.220;2023-03-23T20:03:24;100980.42;;;13.51;74.99
54022;BME280;39936;51.058;17.220;2023-03-23T20:10:48;100959.63;;;13.34;74.94
54022;BME280;39936;51.058;17.220;2023-03-23T20:18:16;100994.00;;;13.49;75.37
54022;BME280;39936;51.058;17.220;2023-03-23T20:22:26;101003.16;;;13.42;75.96
54022;BME280;39936;51.058;17.220;2023-03-23T20:26:39;101008.26;;;13.37;75.98
54022;BME280;39936;51.058;17.220;2023-03-23T20:30:49;101003.74;;;13.33;76.15
54022;BME280;39936;51.058;17.220;2023-03-23T20:38:45;101008.50;;;13.37;75.96
54022;BME280;39936;51.058;17.220;2023-03-23T20:42:24;101010.36;;;13.34;76.12
54022;BME280;39936;51.058;17.220;2023-03-23T20:45:57;101009.34;;;13.30;76.52
54022;BME280;39936;51.058;17.220;2023-03-23T20:53:42;101014.14;;;13.17;76.99
54022;BME280;39936;51.058;17.220;2023-03-23T20:57:04;101009.38;;;13.15;77.17
54022;BME280;39936;51.058;17.220;2023-03-23T21:00:40;101003.98;;;13.13;77.27
54022;BME280;39936;51.058;17.220;2023-03-23T21:04:29;101001.02;;;13.11;76.99
54022;BME280;39936;51.058;17.220;2023-03-23T21:08:09;101001.33;;;13.12;76.68
54022;BME280;39936;51.058;17.220;2023-03-23T21:12:04;101003.30;;;13.11;76.50
54022;BME280;39936;51.058;17.220;2023-03-23T21:15:33;101001.13;;;13.01;76.87
54022;BME280;39936;51.058;17.220;2023-03-23T21:19:23;101001.80;;;12.93;76.94
54022;BME280;39936;51.058;17.220;2023-03-23T21:23:02;101013.27;;;12.69;78.36
54022;BME280;39936;51.058;17.220;2023-03-23T21:27:00;101014.27;;;12.53;78.75
54022;BME280;39936;51.058;17.220;2023-03-23T21:30:19;100993.60;;;12.24;78.70
54022;BME280;39936;51.058;17.220;2023-03-23T21:33:39;101018.63;;;12.39;78.53
54022;BME280;39936;51.058;17.220;2023-03-23T21:36:58;101027.51;;;12.27;79.46
54022;BME280;39936;51.058;17.220;2023-03-23T21:40:35;101031.48;;;12.18;79.15
54022;BME280;39936;51.058;17.220;2023-03-23T21:44:17;101039.95;;;12.10;79.32
54022;BME280;39936;51.058;17.220;2023-03-23T21:48:10;101037.56;;;11.97;79.82
54022;BME280;39936;51.058;17.220;2023-03-23T21:52:24;101039.66;;;11.88;80.89
54022;BME280;39936;51.058;17.220;2023-03-23T21:56:04;101043.42;;;11.71;83.01
54022;BME280;39936;51.058;17.220;2023-03-23T21:59:41;101011.01;;;11.48;83.54
54022;BME280;39936;51.058;17.220;2023-03-23T22:06:49;101024.76;;;11.55;84.56
54022;BME280;39936;51.058;17.220;2023-03-23T22:10:38;101022.54;;;11.49;84.71
54022;BME280;39936;51.058;17.220;2023-03-23T22:14:19;101026.30;;;11.56;84.17
54022;BME280;39936;51.058;17.220;2023-03-23T22:18:00;101023.32;;;11.59;84.22
54022;BME280;39936;51.058;17.220;2023-03-23T22:21:23;101022.96;;;11.61;84.15
54022;BME280;39936;51.058;17.220;2023-03-23T22:25:03;101023.68;;;11.63;83.82
54022;BME280;39936;51.058;17.220;2023-03-23T22:28:25;101019.39;;;11.65;83.42
54022;BME280;39936;51.058;17.220;2023-03-23T22:32:15;101024.93;;;11.54;83.40
54022;BME280;39936;51.058;17.220;2023-03-23T22:35:48;101024.89;;;11.47;83.25
54022;BME280;39936;51.058;17.220;2023-03-23T22:39:16;101024.97;;;11.30;83.56
54022;BME280;39936;51.058;17.220;2023-03-23T22:43:09;101031.81;;;11.10;85.11
54022;BME280;39936;51.058;17.220;2023-03-23T22:46:59;101027.84;;;10.97;86.83
54022;BME280;39936;51.058;17.220;2023-03-23T22:50:41;101027.91;;;10.98;86.60
54022;BME280;39936;51.058;17.220;2023-03-23T22:54:11;101021.77;;;10.84;88.40
54022;BME280;39936;51.058;17.220;2023-03-23T22:58:12;100993.29;;;10.46;89.54
54022;BME280;39936;51.058;17.220;2023-03-23T23:01:28;101019.37;;;10.75;88.90
54022;BME280;39936;51.058;17.220;2023-03-23T23:05:06;101021.33;;;10.75;89.13
54022;BME280;39936;51.058;17.220;2023-03-23T23:08:47;101021.88;;;10.76;89.23
54022;BME280;39936;51.058;17.220;2023-03-23T23:12:28;101021.06;;;10.78;89.88
54022;BME280;39936;51.058;17.220;2023-03-23T23:16:29;101018.64;;;10.85;89.68
54022;BME280;39936;51.058;17.220;2023-03-23T23:19:47;101020.30;;;10.96;88.80